createdAt,value
2023-01-21T00:00:45.786Z,5.30
2023-01-21T00:01:44.266Z,6.60
2023-01-21T00:02:44.336Z,5.80
2023-01-21T00:03:44.301Z,6.10
2023-01-21T00:04:44.312Z,7.30
2023-01-21T00:05:44.235Z,6.80
2023-01-21T00:06:44.225Z,5.50
2023-01-21T00:07:44.207Z,5.80
2023-01-21T00:08:44.214Z,7.20
2023-01-21T00:09:45.136Z,6.60
2023-01-21T00:10:44.221Z,5.80
2023-01-21T00:11:44.169Z,5.50
2023-01-21T00:12:44.149Z,6.40
2023-01-21T00:13:44.181Z,7.10
2023-01-21T00:14:44.119Z,6.00
2023-01-21T00:15:44.197Z,5.70
2023-01-21T00:16:44.112Z,6.20
2023-01-21T00:17:44.128Z,6.10
2023-01-21T00:18:44.106Z,5.70
2023-01-21T00:19:44.085Z,6.30
2023-01-21T00:20:44.113Z,6.20
2023-01-21T00:21:44.060Z,5.60
2023-01-21T00:22:44.047Z,6.50
2023-01-21T00:23:44.852Z,5.90
2023-01-21T00:24:44.046Z,6.70
2023-01-21T00:25:44.051Z,6.20
2023-01-21T00:26:44.071Z,7.00
2023-01-21T00:27:43.985Z,5.60
2023-01-21T00:28:44.017Z,6.50
2023-01-21T00:29:43.966Z,5.50
2023-01-21T00:30:44.140Z,6.90
2023-01-21T00:31:44.078Z,6.00
2023-01-21T00:32:43.940Z,7.50
2023-01-21T00:33:43.926Z,5.70
2023-01-21T00:34:43.925Z,5.10
2023-01-21T00:35:43.949Z,5.70
2023-01-21T00:36:43.901Z,6.50
2023-01-21T00:37:43.908Z,7.30
2023-01-21T00:38:43.896Z,7.30
2023-01-21T00:39:43.910Z,6.30
2023-01-21T00:40:43.907Z,6.20
2023-01-21T00:41:44.751Z,7.00
2023-01-21T00:42:43.836Z,6.60
2023-01-21T00:43:43.844Z,6.30
2023-01-21T00:44:43.835Z,5.60
2023-01-21T00:45:43.845Z,7.10
2023-01-21T00:46:43.812Z,5.70
2023-01-21T00:47:43.780Z,5.70
2023-01-21T00:48:44.616Z,6.50
2023-01-21T00:49:43.765Z,6.20
2023-01-21T00:50:43.830Z,5.00
2023-01-21T00:51:43.755Z,5.40
2023-01-21T00:52:43.861Z,6.20
2023-01-21T00:53:43.744Z,6.80
2023-01-21T00:54:43.712Z,6.30
2023-01-21T00:55:43.727Z,7.20
2023-01-21T00:56:43.709Z,6.90
2023-01-21T00:57:43.708Z,5.40
2023-01-21T00:58:43.689Z,5.60
2023-01-21T00:59:43.665Z,6.30
2023-01-21T01:00:43.712Z,7.30
2023-01-21T01:01:43.714Z,6.10
2023-01-21T01:02:43.793Z,5.50
2023-01-21T01:03:43.632Z,5.10
2023-01-21T01:04:50.095Z,5.60
2023-01-21T01:05:51.275Z,6.00
2023-01-21T01:06:43.594Z,5.80
2023-01-21T01:07:43.576Z,5.70
2023-01-21T01:08:43.583Z,6.00
2023-01-21T01:09:43.580Z,5.40
2023-01-21T01:10:43.578Z,6.90
2023-01-21T01:11:43.537Z,6.80
2023-01-21T01:12:43.551Z,5.70
2023-01-21T01:13:43.536Z,6.80
2023-01-21T01:14:43.555Z,6.10
2023-01-21T01:15:43.563Z,6.20
2023-01-21T01:16:43.510Z,4.80
2023-01-21T01:17:43.481Z,5.70
2023-01-21T01:18:43.501Z,5.80
2023-01-21T01:19:43.456Z,5.90
2023-01-21T01:20:43.474Z,5.50
2023-01-21T01:21:43.444Z,6.40
2023-01-21T01:22:43.431Z,5.80
2023-01-21T01:23:43.460Z,4.50
2023-01-21T01:24:43.404Z,7.00
2023-01-21T01:25:43.484Z,5.20
2023-01-21T01:26:43.404Z,5.00
2023-01-21T01:27:43.383Z,6.50
2023-01-21T01:28:43.379Z,4.70
2023-01-21T01:29:43.396Z,7.10
2023-01-21T01:30:43.404Z,5.90
2023-01-21T01:31:43.445Z,5.50
2023-01-21T01:32:44.443Z,6.80
2023-01-21T01:33:43.321Z,6.50
2023-01-21T01:34:43.311Z,6.50
2023-01-21T01:35:43.315Z,6.20
2023-01-21T01:36:44.278Z,5.70
2023-01-21T01:37:43.853Z,5.70
2023-01-21T01:38:43.286Z,6.40
2023-01-21T01:39:43.260Z,6.80
2023-01-21T01:40:43.299Z,7.60
2023-01-21T01:41:43.244Z,7.50
2023-01-21T01:42:43.243Z,7.80
2023-01-21T01:43:43.226Z,5.90
2023-01-21T01:44:43.213Z,6.30
2023-01-21T01:45:43.224Z,7.60
2023-01-21T01:46:43.294Z,7.00
2023-01-21T01:47:43.180Z,6.10
2023-01-21T01:48:43.212Z,7.20
2023-01-21T01:49:43.168Z,6.40
2023-01-21T01:50:43.272Z,6.70
2023-01-21T01:51:43.219Z,8.30
2023-01-21T01:52:43.122Z,6.00
2023-01-21T01:53:43.142Z,7.60
2023-01-21T01:54:43.113Z,8.70
2023-01-21T01:55:43.098Z,7.30
2023-01-21T01:56:43.140Z,7.70
2023-01-21T01:57:43.081Z,6.60
2023-01-21T01:58:43.104Z,7.20
2023-01-21T01:59:43.099Z,8.40
2023-01-21T02:00:43.073Z,8.70
2023-01-21T02:01:43.107Z,8.00
2023-01-21T02:02:43.041Z,7.60
2023-01-21T02:03:43.015Z,6.90
2023-01-21T02:04:43.018Z,8.10
2023-01-21T02:05:43.015Z,7.60
2023-01-21T02:06:43.044Z,7.60
2023-01-21T02:07:43.014Z,8.20
2023-01-21T02:08:42.996Z,9.50
2023-01-21T02:09:43.000Z,9.20
2023-01-21T02:10:42.955Z,8.30
2023-01-21T02:11:42.992Z,11.10
2023-01-21T02:12:42.955Z,11.60
2023-01-21T02:13:43.006Z,9.50
2023-01-21T02:14:42.962Z,9.30
2023-01-21T02:15:42.902Z,10.00
2023-01-21T02:16:42.934Z,8.90
2023-01-21T02:17:42.878Z,10.20
2023-01-21T02:18:42.894Z,8.10
2023-01-21T02:19:42.878Z,8.50
2023-01-21T02:20:42.849Z,8.00
2023-01-21T02:21:42.868Z,9.70
2023-01-21T02:22:42.873Z,9.50
2023-01-21T02:23:42.825Z,9.10
2023-01-21T02:24:42.821Z,8.80
2023-01-21T02:25:42.818Z,8.80
2023-01-21T02:26:42.856Z,10.40
2023-01-21T02:27:42.815Z,9.80
2023-01-21T02:28:42.777Z,9.70
2023-01-21T02:29:42.788Z,8.80
2023-01-21T02:30:42.817Z,10.10
2023-01-21T02:31:42.833Z,9.00
2023-01-21T02:32:42.743Z,8.20
2023-01-21T02:33:42.749Z,9.80
2023-01-21T02:34:42.703Z,10.80
2023-01-21T02:35:42.707Z,9.50
2023-01-21T02:36:42.714Z,9.20
2023-01-21T02:37:42.687Z,8.00
2023-01-21T02:38:42.680Z,7.50
2023-01-21T02:39:42.700Z,9.40
2023-01-21T02:40:42.660Z,9.00
2023-01-21T02:41:42.670Z,8.90
2023-01-21T02:42:42.666Z,7.80
2023-01-21T02:43:42.617Z,8.00
2023-01-21T02:44:42.655Z,6.90
2023-01-21T02:45:42.607Z,6.30
2023-01-21T02:46:42.753Z,8.00
2023-01-21T02:47:42.599Z,7.50
2023-01-21T02:48:42.567Z,6.80
2023-01-21T02:49:42.560Z,7.60
2023-01-21T02:50:42.562Z,7.20
2023-01-21T02:51:42.688Z,8.10
2023-01-21T02:52:42.556Z,8.50
2023-01-21T02:53:42.532Z,7.10
2023-01-21T02:54:42.526Z,6.90
2023-01-21T02:55:43.550Z,7.10
2023-01-21T02:56:42.524Z,6.10
2023-01-21T02:57:42.487Z,6.90
2023-01-21T02:58:42.529Z,6.90
2023-01-21T02:59:42.471Z,6.10
2023-01-21T03:00:42.500Z,7.60
2023-01-21T03:01:42.509Z,7.10
2023-01-21T03:02:42.436Z,6.60
2023-01-21T03:03:42.426Z,5.80
2023-01-21T03:04:42.435Z,7.80
2023-01-21T03:05:42.466Z,6.80
2023-01-21T03:06:42.422Z,7.40
2023-01-21T03:07:42.385Z,5.60
2023-01-21T03:08:42.412Z,5.40
2023-01-21T03:09:42.364Z,6.60
2023-01-21T03:10:42.364Z,7.00
2023-01-21T03:11:42.372Z,5.80
2023-01-21T03:12:42.349Z,7.10
2023-01-21T03:13:42.317Z,7.40
2023-01-21T03:14:42.310Z,6.50
2023-01-21T03:15:42.307Z,5.90
2023-01-21T03:16:42.341Z,5.60
2023-01-21T03:17:42.293Z,6.80
2023-01-21T03:18:42.394Z,6.80
2023-01-21T03:19:42.274Z,5.80
2023-01-21T03:20:42.257Z,6.70
2023-01-21T03:21:42.287Z,6.60
2023-01-21T03:22:42.232Z,5.90
2023-01-21T03:23:42.240Z,5.90
2023-01-21T03:24:42.250Z,6.80
2023-01-21T03:25:42.215Z,5.70
2023-01-21T03:26:42.222Z,6.80
2023-01-21T03:27:42.198Z,7.90
2023-01-21T03:28:42.197Z,6.20
2023-01-21T03:29:42.219Z,7.50
2023-01-21T03:30:42.200Z,6.40
2023-01-21T03:31:42.261Z,7.10
2023-01-21T03:32:42.139Z,9.00
2023-01-21T03:33:42.141Z,7.50
2023-01-21T03:34:42.126Z,7.60
2023-01-21T03:35:42.129Z,6.70
2023-01-21T03:36:42.123Z,7.90
2023-01-21T03:37:42.112Z,8.10
2023-01-21T03:38:42.083Z,8.40
2023-01-21T03:39:42.073Z,7.70
2023-01-21T03:40:42.065Z,7.20
2023-01-21T03:41:42.055Z,6.70
2023-01-21T03:42:42.068Z,7.60
2023-01-21T03:43:42.039Z,8.10
2023-01-21T03:44:42.019Z,9.50
2023-01-21T03:45:42.038Z,8.40
2023-01-21T03:46:42.007Z,8.20
2023-01-21T03:47:42.018Z,8.70
2023-01-21T03:48:41.977Z,7.70
2023-01-21T03:49:41.982Z,7.90
2023-01-21T03:50:41.962Z,8.60
2023-01-21T03:51:41.960Z,10.90
2023-01-21T03:52:41.978Z,9.40
2023-01-21T03:53:41.949Z,10.10
2023-01-21T03:54:41.932Z,10.10
2023-01-21T03:55:41.928Z,10.20
2023-01-21T03:56:41.914Z,11.50
2023-01-21T03:57:41.918Z,11.10
2023-01-21T03:58:41.933Z,10.30
2023-01-21T03:59:41.874Z,11.10
2023-01-21T04:00:41.866Z,10.70
2023-01-21T04:01:41.871Z,11.10
2023-01-21T04:02:41.857Z,10.00
2023-01-21T04:03:41.871Z,10.60
2023-01-21T04:04:41.818Z,9.60
2023-01-21T04:05:41.843Z,11.00
2023-01-21T04:06:41.826Z,12.00
2023-01-21T04:07:41.818Z,12.10
2023-01-21T04:08:41.789Z,10.90
2023-01-21T04:09:41.768Z,11.00
2023-01-21T04:10:41.752Z,11.30
2023-01-21T04:11:41.759Z,8.60
2023-01-21T04:12:41.766Z,10.10
2023-01-21T04:13:41.739Z,10.60
2023-01-21T04:14:41.735Z,10.30
2023-01-21T04:15:41.714Z,12.10
2023-01-21T04:16:41.813Z,10.60
2023-01-21T04:17:41.712Z,12.10
2023-01-21T04:18:41.711Z,12.00
2023-01-21T04:19:41.675Z,14.10
2023-01-21T04:20:41.693Z,12.60
2023-01-21T04:21:41.656Z,12.90
2023-01-21T04:22:41.701Z,12.50
2023-01-21T04:23:41.642Z,14.20
2023-01-21T04:24:41.637Z,12.90
2023-01-21T04:25:41.634Z,14.60
2023-01-21T04:26:41.607Z,11.00
2023-01-21T04:27:41.669Z,12.20
2023-01-21T04:28:41.601Z,13.00
2023-01-21T04:29:41.588Z,11.90
2023-01-21T04:30:41.600Z,11.80
2023-01-21T04:31:41.580Z,11.40
2023-01-21T04:32:41.582Z,7.80
2023-01-21T04:33:41.558Z,10.90
2023-01-21T04:34:41.541Z,10.10
2023-01-21T04:35:41.512Z,9.90
2023-01-21T04:36:41.516Z,12.30
2023-01-21T04:37:41.550Z,10.80
2023-01-21T04:38:41.536Z,10.60
2023-01-21T04:39:41.481Z,9.40
2023-01-21T04:40:41.510Z,10.30
2023-01-21T04:41:41.484Z,9.50
2023-01-21T04:42:41.489Z,10.30
2023-01-21T04:43:41.449Z,12.00
2023-01-21T04:44:41.426Z,11.00
2023-01-21T04:45:41.467Z,9.80
2023-01-21T04:46:41.425Z,11.20
2023-01-21T04:47:41.431Z,9.10
2023-01-21T04:48:41.431Z,10.10
2023-01-21T04:49:41.427Z,10.00
2023-01-21T04:50:41.401Z,10.50
2023-01-21T04:51:41.407Z,9.00
2023-01-21T04:52:41.393Z,10.40
2023-01-21T04:53:41.363Z,9.80
2023-01-21T04:54:41.333Z,10.70
2023-01-21T04:55:41.338Z,8.80
2023-01-21T04:56:41.308Z,8.40
2023-01-21T04:57:41.349Z,8.30
2023-01-21T04:58:41.296Z,8.60
2023-01-21T04:59:41.292Z,9.60
2023-01-21T05:00:41.274Z,7.50
2023-01-21T05:01:41.261Z,10.20
2023-01-21T05:02:41.284Z,8.60
2023-01-21T05:03:41.247Z,9.00
2023-01-21T05:04:41.235Z,8.00
2023-01-21T05:05:41.238Z,8.70
2023-01-21T05:06:41.222Z,9.40
2023-01-21T05:07:41.230Z,13.60
2023-01-21T05:08:41.192Z,11.50
2023-01-21T05:09:41.192Z,10.30
2023-01-21T05:10:41.161Z,11.40
2023-01-21T05:11:41.164Z,12.00
2023-01-21T05:12:41.194Z,11.50
2023-01-21T05:13:41.164Z,13.50
2023-01-21T05:14:41.082Z,16.00
2023-01-21T05:15:41.179Z,14.30
2023-01-21T05:16:41.158Z,15.30
2023-01-21T05:17:41.181Z,14.90
2023-01-21T05:18:41.160Z,14.10
2023-01-21T05:19:47.577Z,14.10
2023-01-21T05:20:41.093Z,18.60
2023-01-21T05:21:41.024Z,18.30
2023-01-21T05:22:41.084Z,18.80
2023-01-21T05:23:41.092Z,21.90
2023-01-21T05:24:41.037Z,22.30
2023-01-21T05:25:47.521Z,18.50
2023-01-21T05:26:41.023Z,21.90
2023-01-21T05:27:41.049Z,23.30
2023-01-21T05:28:40.986Z,19.90
2023-01-21T05:29:40.992Z,22.30
2023-01-21T05:30:42.675Z,17.70
2023-01-21T05:31:41.057Z,19.20
2023-01-21T05:32:40.989Z,25.10
2023-01-21T05:33:40.961Z,23.10
2023-01-21T05:34:40.935Z,24.80
2023-01-21T05:35:40.917Z,25.00
2023-01-21T05:36:40.921Z,22.60
2023-01-21T05:37:40.898Z,22.50
2023-01-21T05:38:40.917Z,24.40
2023-01-21T05:39:40.910Z,25.10
2023-01-21T05:40:40.876Z,25.50
2023-01-21T05:41:40.903Z,27.70
2023-01-21T05:42:40.859Z,28.70
2023-01-21T05:43:40.892Z,27.60
2023-01-21T05:44:40.850Z,29.50
2023-01-21T05:45:40.842Z,28.10
2023-01-21T05:46:40.819Z,24.90
2023-01-21T05:47:40.803Z,22.70
2023-01-21T05:48:40.831Z,26.50
2023-01-21T05:49:40.835Z,27.10
2023-01-21T05:50:40.793Z,33.40
2023-01-21T05:51:40.815Z,31.80
2023-01-21T05:52:40.762Z,28.00
2023-01-21T05:53:40.765Z,26.30
2023-01-21T05:54:52.448Z,31.00
2023-01-21T05:55:40.728Z,29.80
2023-01-21T05:56:40.718Z,21.40
2023-01-21T05:57:40.718Z,23.00
2023-01-21T05:58:40.733Z,23.00
2023-01-21T05:59:40.683Z,25.80
2023-01-21T06:00:40.753Z,26.40
2023-01-21T06:01:40.670Z,28.50
2023-01-21T06:02:40.776Z,26.20
2023-01-21T06:03:40.725Z,26.20
2023-01-21T06:04:40.641Z,29.40
2023-01-21T06:05:40.622Z,27.60
2023-01-21T06:06:40.634Z,27.50
2023-01-21T06:07:40.653Z,31.20
2023-01-21T06:08:40.641Z,36.40
2023-01-21T06:09:40.604Z,33.20
2023-01-21T06:10:40.605Z,28.40
2023-01-21T06:11:40.608Z,27.40
2023-01-21T06:12:40.559Z,29.90
2023-01-21T06:13:40.564Z,30.80
2023-01-21T06:14:40.531Z,34.70
2023-01-21T06:15:40.589Z,36.10
2023-01-21T06:16:40.531Z,35.50
2023-01-21T06:17:40.500Z,31.10
2023-01-21T06:18:40.523Z,27.20
2023-01-21T06:19:40.509Z,31.30
2023-01-21T06:20:40.501Z,30.30
2023-01-21T06:21:40.460Z,27.90
2023-01-21T06:22:40.473Z,30.80
2023-01-21T06:23:40.498Z,32.40
2023-01-21T06:24:40.431Z,30.50
2023-01-21T06:25:40.438Z,27.40
2023-01-21T06:26:40.438Z,27.70
2023-01-21T06:27:40.405Z,27.60
2023-01-21T06:28:40.450Z,22.10
2023-01-21T06:29:40.379Z,23.80
2023-01-21T06:30:40.454Z,23.40
2023-01-21T06:31:40.516Z,24.10
2023-01-21T06:32:40.379Z,24.10
2023-01-21T06:33:40.480Z,26.60
2023-01-21T06:34:40.340Z,28.60
2023-01-21T06:35:40.363Z,24.60
2023-01-21T06:36:40.322Z,24.30
2023-01-21T06:37:40.305Z,22.00
2023-01-21T06:38:40.323Z,23.10
2023-01-21T06:39:40.300Z,24.10
2023-01-21T06:40:40.281Z,20.50
2023-01-21T06:41:40.316Z,22.40
2023-01-21T06:42:40.257Z,18.20
2023-01-21T06:43:40.286Z,19.40
2023-01-21T06:44:40.256Z,22.20
2023-01-21T06:45:40.217Z,19.30
2023-01-21T06:46:43.491Z,17.10
2023-01-21T06:47:40.205Z,15.60
2023-01-21T06:48:40.226Z,17.30
2023-01-21T06:49:40.185Z,14.90
2023-01-21T06:50:40.195Z,13.10
2023-01-21T06:51:40.162Z,14.00
2023-01-21T06:52:40.185Z,15.70
2023-01-21T06:53:40.143Z,13.50
2023-01-21T06:54:40.153Z,16.00
2023-01-21T06:55:40.122Z,13.80
2023-01-21T06:56:40.113Z,14.10
2023-01-21T06:57:40.108Z,20.30
2023-01-21T06:58:40.116Z,20.20
2023-01-21T06:59:40.048Z,17.00
2023-01-21T07:00:40.039Z,15.40
2023-01-21T07:01:40.033Z,12.80
2023-01-21T07:02:40.122Z,13.50
2023-01-21T07:03:40.011Z,14.20
2023-01-21T07:04:40.014Z,15.00
2023-01-21T07:05:39.984Z,13.70
2023-01-21T07:06:39.975Z,12.00
2023-01-21T07:07:39.986Z,9.90
2023-01-21T07:08:40.005Z,13.50
2023-01-21T07:09:40.005Z,11.20
2023-01-21T07:10:39.944Z,11.40
2023-01-21T07:11:39.908Z,10.10
2023-01-21T07:12:39.899Z,10.70
2023-01-21T07:13:39.892Z,10.70
2023-01-21T07:14:39.889Z,9.30
2023-01-21T07:15:39.897Z,8.70
2023-01-21T07:16:39.881Z,12.20
2023-01-21T07:17:39.849Z,8.80
2023-01-21T07:18:39.838Z,9.40
2023-01-21T07:19:39.877Z,10.90
2023-01-21T07:20:40.873Z,7.70
2023-01-21T07:21:39.793Z,9.30
2023-01-21T07:22:39.805Z,9.70
2023-01-21T07:23:39.777Z,8.20
2023-01-21T07:24:39.799Z,8.40
2023-01-21T07:25:39.773Z,8.30
2023-01-21T07:26:39.783Z,8.80
2023-01-21T07:27:39.737Z,9.10
2023-01-21T07:28:39.752Z,7.30
2023-01-21T07:29:39.784Z,9.20
2023-01-21T07:30:39.752Z,7.90
2023-01-21T07:31:39.819Z,9.10
2023-01-21T07:32:39.704Z,8.90
2023-01-21T07:33:39.750Z,9.80
2023-01-21T07:34:39.709Z,8.70
2023-01-21T07:35:39.686Z,7.20
2023-01-21T07:36:39.657Z,8.70
2023-01-21T07:37:39.702Z,9.00
2023-01-21T07:38:39.646Z,8.00
2023-01-21T07:39:39.643Z,9.10
2023-01-21T07:40:39.656Z,8.70
2023-01-21T07:41:39.630Z,7.50
2023-01-21T07:42:39.629Z,11.00
2023-01-21T07:43:39.571Z,7.20
2023-01-21T07:44:39.594Z,8.40
2023-01-21T07:45:39.549Z,8.50
2023-01-21T07:46:39.624Z,7.70
2023-01-21T07:47:39.535Z,7.70
2023-01-21T07:48:39.540Z,8.10
2023-01-21T07:49:39.593Z,7.30
2023-01-21T07:50:39.515Z,6.20
2023-01-21T07:51:39.502Z,6.80
2023-01-21T07:52:39.486Z,8.60
2023-01-21T07:53:39.496Z,8.10
2023-01-21T07:54:39.511Z,7.60
2023-01-21T07:55:39.447Z,8.20
2023-01-21T07:56:39.449Z,8.60
2023-01-21T07:57:39.439Z,7.50
2023-01-21T07:58:39.460Z,8.20
2023-01-21T07:59:39.477Z,8.60
2023-01-21T08:00:39.431Z,8.00
2023-01-21T08:01:39.487Z,7.40
2023-01-21T08:02:39.546Z,8.90
2023-01-21T08:03:39.425Z,7.50
2023-01-21T08:04:39.464Z,8.10
2023-01-21T08:05:39.363Z,7.60
2023-01-21T08:06:39.343Z,8.60
2023-01-21T08:07:39.374Z,8.40
2023-01-21T08:08:39.331Z,7.70
2023-01-21T08:09:39.336Z,9.10
2023-01-21T08:10:40.191Z,8.80
2023-01-21T08:11:39.330Z,6.80
2023-01-21T08:12:39.280Z,6.90
2023-01-21T08:13:39.555Z,9.20
2023-01-21T08:14:39.292Z,8.40
2023-01-21T08:15:39.265Z,7.90
2023-01-21T08:16:39.340Z,9.30
2023-01-21T08:17:39.244Z,7.60
2023-01-21T08:18:39.221Z,8.40
2023-01-21T08:19:39.274Z,6.60
2023-01-21T08:20:39.279Z,7.30
2023-01-21T08:21:39.218Z,6.90
2023-01-21T08:22:39.199Z,6.10
2023-01-21T08:23:39.178Z,7.40
2023-01-21T08:24:39.242Z,6.40
2023-01-21T08:25:39.150Z,7.30
2023-01-21T08:26:39.148Z,6.60
2023-01-21T08:27:39.131Z,6.40
2023-01-21T08:28:39.145Z,6.20
2023-01-21T08:29:39.159Z,6.20
2023-01-21T08:30:39.202Z,5.60
2023-01-21T08:31:39.185Z,5.90
2023-01-21T08:32:39.097Z,5.70
2023-01-21T08:33:39.116Z,4.20
2023-01-21T08:34:39.088Z,6.20
2023-01-21T08:35:39.084Z,5.50
2023-01-21T08:36:39.048Z,5.70
2023-01-21T08:37:39.044Z,4.70
2023-01-21T08:38:39.043Z,5.40
2023-01-21T08:39:39.044Z,6.80
2023-01-21T08:40:39.004Z,5.30
2023-01-21T08:41:39.006Z,5.40
2023-01-21T08:42:39.028Z,5.70
2023-01-21T08:43:38.975Z,7.00
2023-01-21T08:44:39.043Z,5.70
2023-01-21T08:45:39.018Z,5.80
2023-01-21T08:46:38.962Z,5.30
2023-01-21T08:47:39.010Z,6.00
2023-01-21T08:48:38.951Z,5.70
2023-01-21T08:49:38.969Z,7.10
2023-01-21T08:50:38.948Z,6.50
2023-01-21T08:51:38.899Z,6.00
2023-01-21T08:52:38.896Z,5.90
2023-01-21T08:53:38.915Z,6.00
2023-01-21T08:54:38.911Z,6.30
2023-01-21T08:55:38.909Z,5.40
2023-01-21T08:56:38.868Z,5.20
2023-01-21T08:57:38.838Z,4.70
2023-01-21T08:58:38.853Z,5.70
2023-01-21T08:59:38.827Z,4.70
2023-01-21T09:00:38.863Z,6.00
2023-01-21T09:01:38.797Z,5.00
2023-01-21T09:02:38.806Z,6.30
2023-01-21T09:03:38.775Z,7.10
2023-01-21T09:04:38.789Z,6.30
2023-01-21T09:05:38.759Z,5.40
2023-01-21T09:06:38.752Z,5.70
2023-01-21T09:07:38.741Z,6.40
2023-01-21T09:08:38.749Z,5.50
2023-01-21T09:09:38.753Z,5.10
2023-01-21T09:10:38.754Z,6.00
2023-01-21T09:11:38.725Z,5.50
2023-01-21T09:12:38.722Z,5.80
2023-01-21T09:13:38.702Z,6.00
2023-01-21T09:14:38.697Z,5.30
2023-01-21T09:15:38.697Z,6.00
2023-01-21T09:16:38.695Z,5.50
2023-01-21T09:17:38.650Z,5.80
2023-01-21T09:18:38.625Z,6.20
2023-01-21T09:19:38.631Z,5.50
2023-01-21T09:20:38.637Z,5.70
2023-01-21T09:21:38.619Z,6.50
2023-01-21T09:22:39.338Z,6.00
2023-01-21T09:23:38.583Z,6.40
2023-01-21T09:24:38.604Z,5.50
2023-01-21T09:25:38.727Z,5.20
2023-01-21T09:26:38.619Z,6.50
2023-01-21T09:27:38.532Z,6.00
2023-01-21T09:28:38.554Z,4.90
2023-01-21T09:29:38.517Z,5.70
2023-01-21T09:30:38.723Z,4.60
2023-01-21T09:31:38.531Z,6.40
2023-01-21T09:32:38.529Z,5.70
2023-01-21T09:33:38.490Z,6.00
2023-01-21T09:34:38.484Z,6.70
2023-01-21T09:35:38.486Z,5.90
2023-01-21T09:36:38.452Z,6.20
2023-01-21T09:37:38.441Z,7.10
2023-01-21T09:38:38.483Z,5.40
2023-01-21T09:39:38.411Z,6.10
2023-01-21T09:40:38.454Z,6.00
2023-01-21T09:41:38.420Z,6.30
2023-01-21T09:42:38.385Z,6.80
2023-01-21T09:43:38.371Z,6.40
2023-01-21T09:44:39.321Z,6.90
2023-01-21T09:45:38.485Z,6.90
2023-01-21T09:46:38.360Z,6.10
2023-01-21T09:47:38.352Z,7.20
2023-01-21T09:48:38.338Z,6.40
2023-01-21T09:49:38.326Z,6.00
2023-01-21T09:50:38.341Z,5.70
2023-01-21T09:51:38.308Z,5.50
2023-01-21T09:52:38.292Z,5.80
2023-01-21T09:53:38.302Z,5.10
2023-01-21T09:54:38.281Z,5.30
2023-01-21T09:55:38.339Z,5.70
2023-01-21T09:56:38.258Z,5.00
2023-01-21T09:57:38.271Z,5.10
2023-01-21T09:58:38.240Z,6.40
2023-01-21T09:59:38.222Z,4.70
2023-01-21T10:00:38.283Z,4.60
2023-01-21T10:01:38.214Z,5.10
2023-01-21T10:02:38.207Z,5.20
2023-01-21T10:03:38.184Z,5.20
2023-01-21T10:04:38.239Z,5.60
2023-01-21T10:05:38.184Z,5.50
2023-01-21T10:06:39.122Z,5.00
2023-01-21T10:07:38.147Z,4.20
2023-01-21T10:08:38.125Z,5.30
2023-01-21T10:09:38.181Z,4.60
2023-01-21T10:10:38.146Z,4.40
2023-01-21T10:11:38.113Z,4.80
2023-01-21T10:12:38.263Z,5.50
2023-01-21T10:13:38.099Z,5.10
2023-01-21T10:14:38.103Z,5.70
2023-01-21T10:15:38.132Z,9.40
2023-01-21T10:16:38.113Z,5.90
2023-01-21T10:17:38.056Z,4.10
2023-01-21T10:18:38.105Z,4.70
2023-01-21T10:19:38.835Z,5.60
2023-01-21T10:20:38.025Z,5.60
2023-01-21T10:21:38.000Z,5.20
2023-01-21T10:22:38.006Z,6.40
2023-01-21T10:23:38.003Z,6.90
2023-01-21T10:24:38.039Z,5.10
2023-01-21T10:25:37.975Z,5.30
2023-01-21T10:26:37.941Z,5.00
2023-01-21T10:27:39.256Z,6.30
2023-01-21T10:28:37.978Z,5.50
2023-01-21T10:29:37.920Z,6.20
2023-01-21T10:30:37.987Z,5.20
2023-01-21T10:31:38.016Z,5.10
2023-01-21T10:32:37.911Z,6.10
2023-01-21T10:33:37.906Z,5.10
2023-01-21T10:34:37.853Z,5.00
2023-01-21T10:35:37.893Z,5.10
2023-01-21T10:36:37.832Z,4.70
2023-01-21T10:37:37.832Z,6.00
2023-01-21T10:38:37.810Z,5.10
2023-01-21T10:39:37.813Z,4.40
2023-01-21T10:40:37.812Z,5.80
2023-01-21T10:41:37.858Z,5.10
2023-01-21T10:42:37.796Z,4.60
2023-01-21T10:43:37.778Z,4.80
2023-01-21T10:44:37.765Z,4.10
2023-01-21T10:45:37.769Z,4.70
2023-01-21T10:46:37.786Z,5.40
2023-01-21T10:47:37.793Z,5.10
2023-01-21T10:48:37.728Z,4.00
2023-01-21T10:49:37.772Z,6.60
2023-01-21T10:50:37.794Z,5.90
2023-01-21T10:51:37.685Z,4.40
2023-01-21T10:52:37.727Z,5.60
2023-01-21T10:53:37.670Z,5.50
2023-01-21T10:54:37.652Z,5.30
2023-01-21T10:55:37.646Z,5.50
2023-01-21T10:56:37.658Z,4.80
2023-01-21T10:57:37.628Z,5.10
2023-01-21T10:58:37.639Z,4.90
2023-01-21T10:59:37.598Z,5.40
2023-01-21T11:00:37.604Z,5.60
2023-01-21T11:01:37.731Z,5.30
2023-01-21T11:02:37.582Z,5.40
2023-01-21T11:03:38.594Z,5.10
2023-01-21T11:04:38.274Z,5.30
2023-01-21T11:05:37.538Z,5.20
2023-01-21T11:06:37.578Z,4.60
2023-01-21T11:07:37.614Z,5.50
2023-01-21T11:08:37.573Z,5.20
2023-01-21T11:09:37.551Z,5.00
2023-01-21T11:10:37.492Z,5.00
2023-01-21T11:11:37.527Z,4.90
2023-01-21T11:12:37.451Z,5.50
2023-01-21T11:13:37.464Z,4.50
2023-01-21T11:14:37.431Z,6.40
2023-01-21T11:15:37.447Z,5.30
2023-01-21T11:16:37.528Z,4.90
2023-01-21T11:17:37.410Z,5.30
2023-01-21T11:18:37.401Z,4.30
2023-01-21T11:19:37.395Z,4.80
2023-01-21T11:20:37.370Z,4.80
2023-01-21T11:21:37.426Z,4.80
2023-01-21T11:22:37.396Z,4.70
2023-01-21T11:23:37.380Z,5.30
2023-01-21T11:24:37.368Z,5.00
2023-01-21T11:25:37.356Z,4.60
2023-01-21T11:26:37.400Z,5.20
2023-01-21T11:27:37.310Z,5.10
2023-01-21T11:28:37.347Z,6.20
2023-01-21T11:29:37.312Z,5.20
2023-01-21T11:30:50.060Z,5.10
2023-01-21T11:31:37.489Z,4.70
2023-01-21T11:32:37.320Z,4.20
2023-01-21T11:33:37.268Z,5.00
2023-01-21T11:34:37.288Z,4.90
2023-01-21T11:35:37.232Z,6.30
2023-01-21T11:36:37.256Z,4.90
2023-01-21T11:37:37.201Z,5.30
2023-01-21T11:38:37.214Z,5.40
2023-01-21T11:39:37.336Z,5.70
2023-01-21T11:40:37.311Z,4.90
2023-01-21T11:41:37.205Z,4.00
2023-01-21T11:42:37.151Z,5.70
2023-01-21T11:43:37.340Z,5.90
2023-01-21T11:44:37.177Z,4.90
2023-01-21T11:45:37.121Z,4.60
2023-01-21T11:46:37.157Z,4.70
2023-01-21T11:47:37.103Z,5.70
2023-01-21T11:48:37.087Z,6.10
2023-01-21T11:49:37.154Z,6.60
2023-01-21T11:50:37.075Z,5.30
2023-01-21T11:51:45.940Z,5.10
2023-01-21T11:52:37.240Z,5.00
2023-01-21T11:53:37.067Z,4.70
2023-01-21T11:54:37.133Z,5.40
2023-01-21T11:55:37.059Z,6.20
2023-01-21T11:56:37.050Z,5.70
2023-01-21T11:57:36.994Z,6.10
2023-01-21T11:58:36.992Z,5.80
2023-01-21T11:59:37.001Z,6.30
2023-01-21T12:00:37.103Z,13.60
2023-01-21T12:01:36.983Z,6.00
2023-01-21T12:02:37.139Z,5.10
2023-01-21T12:03:36.984Z,6.90
2023-01-21T12:04:37.022Z,6.80
2023-01-21T12:05:36.924Z,6.50
2023-01-21T12:06:37.260Z,5.70
2023-01-21T12:07:36.901Z,6.50
2023-01-21T12:08:36.883Z,5.50
2023-01-21T12:09:36.894Z,5.60
2023-01-21T12:10:36.879Z,5.90
2023-01-21T12:11:37.167Z,6.60
2023-01-21T12:12:36.858Z,6.70
2023-01-21T12:13:36.909Z,6.10
2023-01-21T12:14:36.867Z,6.60
2023-01-21T12:15:36.866Z,4.80
2023-01-21T12:16:36.825Z,5.40
2023-01-21T12:17:39.071Z,6.50
2023-01-21T12:18:36.807Z,6.20
2023-01-21T12:19:36.806Z,6.40
2023-01-21T12:20:36.829Z,5.70
2023-01-21T12:21:36.776Z,6.20
2023-01-21T12:22:36.807Z,5.90
2023-01-21T12:23:36.733Z,5.10
2023-01-21T12:24:36.724Z,6.10
2023-01-21T12:25:36.724Z,5.80
2023-01-21T12:26:37.034Z,6.70
2023-01-21T12:27:36.772Z,6.40
2023-01-21T12:28:36.676Z,6.10
2023-01-21T12:29:36.674Z,6.10
2023-01-21T12:30:37.650Z,5.80
2023-01-21T12:31:36.709Z,5.30
2023-01-21T12:32:36.677Z,6.80
2023-01-21T12:33:36.629Z,5.20
2023-01-21T12:34:37.597Z,5.90
2023-01-21T12:35:36.621Z,6.40
2023-01-21T12:36:36.598Z,6.00
2023-01-21T12:37:37.697Z,6.10
2023-01-21T12:38:36.577Z,6.20
2023-01-21T12:39:36.567Z,6.30
2023-01-21T12:40:36.545Z,7.50
2023-01-21T12:41:36.556Z,13.90
2023-01-21T12:42:36.578Z,6.60
2023-01-21T12:43:36.566Z,5.70
2023-01-21T12:44:36.541Z,5.80
2023-01-21T12:45:36.503Z,5.60
2023-01-21T12:46:36.544Z,5.00
2023-01-21T12:47:36.539Z,6.60
2023-01-21T12:48:36.469Z,5.70
2023-01-21T12:49:36.493Z,5.90
2023-01-21T12:50:36.477Z,5.20
2023-01-21T12:51:36.469Z,5.90
2023-01-21T12:52:36.459Z,5.80
2023-01-21T12:53:36.454Z,5.80
2023-01-21T12:54:36.410Z,6.30
2023-01-21T12:55:36.767Z,5.70
2023-01-21T12:56:36.420Z,5.50
2023-01-21T12:57:36.407Z,6.20
2023-01-21T12:58:36.441Z,5.70
2023-01-21T12:59:36.380Z,5.80
2023-01-21T13:00:36.381Z,5.40
2023-01-21T13:01:36.398Z,4.90
2023-01-21T13:02:36.365Z,5.20
2023-01-21T13:03:36.314Z,4.90
2023-01-21T13:04:36.313Z,5.30
2023-01-21T13:05:36.319Z,5.70
2023-01-21T13:06:52.439Z,5.70
2023-01-21T13:07:36.315Z,4.50
2023-01-21T13:08:36.278Z,6.20
2023-01-21T13:09:36.288Z,6.00
2023-01-21T13:10:36.256Z,6.20
2023-01-21T13:11:36.244Z,6.20
2023-01-21T13:12:36.263Z,5.70